createdAt,value
2023-05-22T00:08:47.621Z,10.10
2023-05-22T00:18:51.217Z,9.50
2023-05-22T00:28:54.873Z,6.80
2023-05-22T00:38:59.268Z,7.90
2023-05-22T00:49:03.318Z,7.10
2023-05-22T00:59:07.028Z,8.20
2023-05-22T01:09:12.477Z,7.60
2023-05-22T01:19:41.321Z,7.50
2023-05-22T01:29:49.656Z,9.80
2023-05-22T01:39:54.950Z,8.80
2023-05-22T01:49:58.623Z,10.90
2023-05-22T02:00:14.133Z,10.20
2023-05-22T02:10:22.112Z,11.70
2023-05-22T02:20:26.206Z,9.00
2023-05-22T02:30:30.048Z,10.10
2023-05-22T02:40:35.384Z,6.90
2023-05-22T02:50:41.148Z,9.80
2023-05-22T03:00:47.051Z,8.00
2023-05-22T03:10:52.193Z,8.70
2023-05-22T03:20:55.994Z,8.20
2023-05-22T03:30:59.817Z,6.90
2023-05-22T03:41:08.112Z,7.10
2023-05-22T03:51:11.853Z,9.90
2023-05-22T04:01:17.183Z,8.20
2023-05-22T04:11:24.616Z,8.00
2023-05-22T04:21:28.611Z,7.30
2023-05-22T04:31:32.830Z,13.70
2023-05-22T04:41:40.979Z,13.30
2023-05-22T04:51:44.768Z,4.80
2023-05-22T05:01:48.485Z,4.00
2023-05-22T05:11:53.698Z,3.40
2023-05-22T05:21:57.372Z,3.60
2023-05-22T05:32:01.758Z,3.60
2023-05-22T05:42:19.176Z,7.50
2023-05-22T05:52:28.659Z,5.00
2023-05-22T06:02:32.992Z,6.70
2023-05-22T06:12:39.173Z,6.70
2023-05-22T06:22:42.847Z,5.30
2023-05-22T06:32:49.395Z,6.60
2023-05-22T06:42:53.413Z,5.00
2023-05-22T06:53:11.658Z,5.00
2023-05-22T07:03:15.383Z,4.80
2023-05-22T07:13:42.990Z,3.80
2023-05-22T07:23:46.917Z,4.90
2023-05-22T07:33:50.565Z,5.30
2023-05-22T07:43:54.268Z,4.40
2023-05-22T07:54:04.459Z,6.20
2023-05-22T08:04:08.970Z,5.40
2023-05-22T08:14:13.072Z,3.20
2023-05-22T08:24:19.491Z,4.10
2023-05-22T08:34:23.392Z,3.70
2023-05-22T08:44:26.991Z,4.70
2023-05-22T08:54:33.726Z,3.20
2023-05-22T09:04:42.256Z,5.50
2023-05-22T09:14:45.877Z,4.90
2023-05-22T09:24:49.434Z,3.80
2023-05-22T09:34:56.911Z,3.20
2023-05-22T09:45:06.977Z,3.60
2023-05-22T09:55:14.297Z,3.60
2023-05-22T10:05:23.030Z,4.90
2023-05-22T10:15:28.778Z,7.60
2023-05-22T10:25:33.185Z,3.80
2023-05-22T10:35:58.835Z,6.20
2023-05-22T10:46:08.701Z,5.20
2023-05-22T10:56:18.300Z,4.10
2023-05-22T11:06:33.320Z,6.20
2023-05-22T11:16:38.784Z,4.50
2023-05-22T11:26:43.283Z,4.10
2023-05-22T11:36:48.450Z,4.40
2023-05-22T11:46:52.292Z,3.80
2023-05-22T11:56:56.140Z,4.50
2023-05-22T12:07:00.261Z,3.50
2023-05-22T12:17:06.833Z,4.10
2023-05-22T12:27:11.133Z,3.70
2023-05-22T12:37:28.070Z,3.80
2023-05-22T12:47:34.640Z,3.10
2023-05-22T12:57:38.412Z,4.60
2023-05-22T13:07:42.022Z,4.40
2023-05-22T13:17:46.157Z,4.50
2023-05-22T13:27:50.490Z,3.60
2023-05-22T13:37:54.100Z,7.40
2023-05-22T13:47:57.963Z,5.00
2023-05-22T13:58:02.752Z,4.70
2023-05-22T14:08:06.426Z,3.70
2023-05-22T14:18:14.231Z,4.30
2023-05-22T14:28:18.880Z,4.30
2023-05-22T14:38:22.718Z,3.90
2023-05-22T14:48:27.039Z,3.70
2023-05-22T14:58:32.765Z,4.00
2023-05-22T15:08:37.018Z,3.60
2023-05-22T15:18:40.869Z,3.80
2023-05-22T15:28:45.448Z,4.00
2023-05-22T15:38:51.458Z,5.40
2023-05-22T15:48:56.214Z,4.70
2023-05-22T15:58:59.856Z,3.60
2023-05-22T16:09:06.986Z,8.00
2023-05-22T16:19:11.697Z,4.80
2023-05-22T16:29:20.896Z,4.00
2023-05-22T16:39:29.683Z,4.60
2023-05-22T16:49:33.426Z,4.40
2023-05-22T16:59:38.404Z,4.50
2023-05-22T17:09:46.045Z,4.80
2023-05-22T17:19:51.612Z,4.40
2023-05-22T17:29:55.203Z,3.60
2023-05-22T17:39:58.806Z,5.80
2023-05-22T17:50:02.467Z,5.20
2023-05-22T18:00:11.790Z,5.00
2023-05-22T18:10:15.616Z,6.30
2023-05-22T18:20:20.351Z,5.10
2023-05-22T18:30:24.000Z,5.10
2023-05-22T18:40:27.693Z,5.30
2023-05-22T18:50:31.449Z,7.50
2023-05-22T19:00:35.344Z,10.20
2023-05-22T19:10:39.557Z,8.70
2023-05-22T19:20:45.451Z,7.20
2023-05-22T19:30:49.137Z,7.00
2023-05-22T19:40:52.851Z,8.10
2023-05-22T19:50:59.240Z,6.00
2023-05-22T20:01:02.893Z,6.10
2023-05-22T20:11:06.476Z,5.80
2023-05-22T20:21:19.165Z,7.30
2023-05-22T20:31:23.037Z,7.30
2023-05-22T20:41:26.699Z,8.10
2023-05-22T20:51:34.720Z,6.20
2023-05-22T21:01:38.689Z,6.00
2023-05-22T21:11:42.567Z,6.10
2023-05-22T21:21:46.961Z,6.30
2023-05-22T21:31:51.083Z,6.00
2023-05-22T21:41:55.012Z,8.00
2023-05-22T21:51:59.354Z,7.50
2023-05-22T22:02:03.157Z,9.30
2023-05-22T22:12:07.330Z,7.90
2023-05-22T22:22:12.714Z,7.60
2023-05-22T22:32:18.243Z,7.60
2023-05-22T22:42:22.120Z,10.70
2023-05-22T22:52:27.222Z,10.50
2023-05-22T23:02:30.942Z,9.30
2023-05-22T23:12:36.505Z,8.30
2023-05-22T23:22:40.618Z,8.10
2023-05-22T23:32:44.309Z,8.10
2023-05-22T23:42:48.767Z,8.70
2023-05-22T23:52:54.517Z,7.70
